Time;durP1;ratioP1;P1;durP2;ratioP2;P2;SDS_P1;SDS_P2;PMS_P1;PMS_P2;Temp;Humidity;BMP_temperature;BMP_pressure;BME280_temperature;BME280_humidity;BME280_pressure;Samples;Min_cycle;Max_cycle;Signal;HPM_P1;HPM_P2
2023/01/11 00:01:06;;;;;;;6.85;1.45;;;28.00;81.50;;;;;;5065872;28;20030;-70
2023/01/11 00:03:34;;;;;;;5.38;1.20;;;27.90;81.60;;;;;;5064037;28;20024;-70
2023/01/11 00:06:01;;;;;;;3.53;0.95;;;27.30;82.80;;;;;;5068694;28;20373;-70
2023/01/11 00:08:29;;;;;;;10.15;1.48;;;27.10;83.80;;;;;;5066485;28;20459;-70
2023/01/11 00:10:56;;;;;;;2.90;1.00;;;27.50;84.60;;;;;;5066350;28;20525;-69
2023/01/11 00:13:24;;;;;;;3.65;1.30;;;27.40;81.30;;;;;;5066984;28;20040;-72
2023/01/11 00:15:51;;;;;;;6.93;1.52;;;27.40;82.80;;;;;;5065966;28;20016;-68
2023/01/11 00:18:19;;;;;;;7.10;1.23;;;27.70;83.10;;;;;;5065148;28;20044;-69
2023/01/11 00:20:46;;;;;;;4.75;1.13;;;27.90;81.70;;;;;;5069849;28;20027;-68
2023/01/11 00:23:13;;;;;;;5.97;2.00;;;28.00;79.90;;;;;;5065175;28;20024;-68
2023/01/11 00:25:41;;;;;;;5.57;1.60;;;28.20;80.30;;;;;;5066727;28;20495;-68
2023/01/11 00:28:09;;;;;;;7.78;1.63;;;28.20;80.80;;;;;;5070107;28;20036;-70
2023/01/11 00:30:37;;;;;;;4.20;1.15;;;28.40;79.80;;;;;;5069890;28;20025;-68
2023/01/11 00:33:05;;;;;;;11.23;1.67;;;28.60;82.30;;;;;;5065096;28;20028;-68
2023/01/11 00:35:32;;;;;;;7.57;1.73;;;28.60;76.40;;;;;;5067066;28;20047;-68
2023/01/11 00:38:00;;;;;;;4.82;1.20;;;28.70;75.40;;;;;;5064180;28;20017;-67
2023/01/11 00:40:27;;;;;;;4.25;1.10;;;28.80;75.30;;;;;;5068940;28;20032;-68
2023/01/11 00:48:25;;;;;;;6.07;1.52;;;29.00;75.10;;;;;;5065582;28;20060;-68
2023/01/11 00:50:55;;;;;;;3.95;1.27;;;29.10;73.00;;;;;;5068178;28;20027;-67
2023/01/11 00:53:22;;;;;;;5.65;1.20;;;29.30;77.70;;;;;;5066141;28;20029;-68
2023/01/11 00:55:49;;;;;;;10.35;1.17;;;29.90;75.30;;;;;;5068781;28;20413;-68
2023/01/11 00:58:17;;;;;;;4.88;0.95;;;30.50;72.90;;;;;;5070596;28;20047;-68
2023/01/11 01:00:44;;;;;;;8.30;1.33;;;30.50;70.20;;;;;;5065485;28;20094;-68
2023/01/11 01:03:12;;;;;;;8.35;1.98;;;30.90;68.30;;;;;;5078566;28;20032;-68
2023/01/11 01:05:39;;;;;;;6.15;0.98;;;30.50;66.00;;;;;;5074736;28;20033;-69
2023/01/11 01:08:07;;;;;;;7.70;1.73;;;30.80;67.90;;;;;;5062837;28;20406;-69
2023/01/11 01:10:34;;;;;;;3.72;1.17;;;31.50;65.80;;;;;;5073018;28;20035;-66
2023/01/11 01:15:47;;;;;;;6.43;1.48;;;32.30;59.10;;;;;;5068845;28;20031;-68
2023/01/11 01:18:15;;;;;;;6.13;1.20;;;31.90;58.30;;;;;;5078755;28;20028;-68
2023/01/11 01:20:42;;;;;;;5.70;1.20;;;31.30;60.40;;;;;;5069948;28;20053;-68
2023/01/11 01:23:10;;;;;;;5.30;1.23;;;31.50;60.00;;;;;;5070454;28;20035;-67
2023/01/11 01:25:37;;;;;;;3.10;0.90;;;31.20;62.00;;;;;;5068374;28;20033;-66
2023/01/11 01:28:05;;;;;;;4.55;1.20;;;30.70;61.90;;;;;;5069088;28;20098;-67
2023/01/11 01:30:33;;;;;;;5.78;1.27;;;30.30;61.00;;;;;;5075155;28;20035;-71
2023/01/11 01:33:00;;;;;;;3.03;0.88;;;30.00;63.50;;;;;;5076010;28;20058;-70
2023/01/11 01:35:27;;;;;;;7.25;1.52;;;29.80;64.10;;;;;;5079508;28;20044;-69
2023/01/11 01:37:55;;;;;;;4.65;1.23;;;29.90;64.60;;;;;;5084634;28;20424;-70
2023/01/11 01:40:22;;;;;;;4.07;1.17;;;29.70;64.70;;;;;;5069332;28;20044;-69
2023/01/11 01:42:53;;;;;;;6.97;1.35;;;29.90;65.00;;;;;;5080077;28;20024;-69
2023/01/11 01:45:28;;;;;;;7.15;1.90;;;29.80;65.50;;;;;;5082826;28;20113;-69
2023/01/11 01:48:04;;;;;;;7.40;1.45;;;29.70;66.20;;;;;;5071509;28;20044;-70
2023/01/11 01:50:54;;;;;;;4.68;1.83;;;29.50;66.40;;;;;;5069884;28;20024;-69
2023/01/11 01:53:34;;;;;;;11.43;1.77;;;29.00;67.90;;;;;;5064131;28;20028;-73
2023/01/11 01:56:09;;;;;;;5.40;1.30;;;29.20;69.00;;;;;;5069601;28;20048;-68
2023/01/11 01:58:42;;;;;;;5.03;1.42;;;29.10;68.70;;;;;;5072574;28;20029;-69
2023/01/11 02:03:55;;;;;;;5.75;1.50;;;29.00;68.90;;;;;;5070537;28;20081;-72
2023/01/11 02:06:23;;;;;;;5.32;1.50;;;28.50;69.70;;;;;;5073898;28;20051;-68
2023/01/11 02:09:00;;;;;;;5.00;1.52;;;28.00;71.80;;;;;;5080878;28;20100;-68
2023/01/11 02:11:29;;;;;;;5.97;1.60;;;27.70;74.80;;;;;;5072572;28;20108;-67
2023/01/11 02:14:02;;;;;;;9.40;2.13;;;27.70;78.20;;;;;;5078732;28;20056;-71
2023/01/11 02:16:30;;;;;;;6.82;2.00;;;27.00;93.00;;;;;;5072428;28;20473;-68
2023/01/11 02:18:59;;;;;;;5.82;1.75;;;26.50;91.70;;;;;;5068973;28;20024;-71
2023/01/11 02:21:34;;;;;;;8.88;1.73;;;26.20;92.20;;;;;;5060917;28;20027;-69
2023/01/11 02:24:14;;;;;;;11.00;1.83;;;26.10;91.80;;;;;;5069471;28;20021;-70
2023/01/11 02:27:09;;;;;;;7.75;2.78;;;26.10;92.80;;;;;;5080633;28;20516;-71
2023/01/11 02:29:39;;;;;;;5.03;1.60;;;26.30;91.70;;;;;;5068980;28;20031;-72
2023/01/11 02:32:35;;;;;;;4.90;1.63;;;26.60;91.50;;;;;;5070406;28;20481;-70
2023/01/11 02:35:23;;;;;;;6.13;1.45;;;26.50;90.40;;;;;;5071550;28;20486;-69
2023/01/11 02:38:13;;;;;;;4.78;1.63;;;26.50;90.50;;;;;;5082981;28;20032;-65
2023/01/11 02:41:13;;;;;;;4.75;1.50;;;26.70;88.90;;;;;;5068401;28;20401;-71
2023/01/11 02:47:17;;;;;;;9.90;1.60;;;27.20;87.10;;;;;;5058324;28;20035;-69
2023/01/11 02:50:07;;;;;;;3.67;1.55;;;27.60;84.20;;;;;;5028412;28;20190;-69
2023/01/11 02:52:53;;;;;;;2.75;1.20;;;27.70;83.30;;;;;;5034091;28;20059;-71
2023/01/11 02:55:30;;;;;;;4.97;2.05;;;28.00;81.80;;;;;;5062294;28;20147;-71
2023/01/11 02:58:00;;;;;;;4.57;1.48;;;28.60;82.70;;;;;;5075350;28;20495;-70
2023/01/11 03:00:28;;;;;;;3.47;1.17;;;29.00;79.50;;;;;;5084431;28;20028;-70
2023/01/11 03:03:09;;;;;;;6.68;1.60;;;29.40;76.90;;;;;;5079792;28;20020;-70
2023/01/11 03:06:00;;;;;;;6.25;2.08;;;29.70;72.10;;;;;;5073402;28;20055;-71
2023/01/11 03:08:43;;;;;;;5.40;1.83;;;29.70;74.70;;;;;;5073114;28;20086;-71
2023/01/11 03:14:19;;;;;;;9.13;1.42;;;31.10;68.20;;;;;;5051187;28;20504;-71
2023/01/11 03:16:52;;;;;;;5.93;1.40;;;30.80;68.40;;;;;;5067705;28;20469;-72
2023/01/11 03:19:36;;;;;;;10.32;2.60;;;30.40;67.70;;;;;;5069332;28;20037;-72
2023/01/11 03:22:37;;;;;;;7.40;1.80;;;30.40;67.10;;;;;;5087302;28;20107;-71
2023/01/11 03:25:36;;;;;;;5.88;1.35;;;30.40;66.00;;;;;;5080421;28;20074;-74
2023/01/11 03:28:25;;;;;;;9.38;1.45;;;30.00;67.30;;;;;;5061796;28;20147;-68
2023/01/11 03:31:06;;;;;;;4.03;1.40;;;29.70;68.00;;;;;;5084921;28;20027;-69
2023/01/11 03:33:54;;;;;;;7.00;2.40;;;29.60;68.50;;;;;;5076794;28;20035;-68
2023/01/11 03:36:53;;;;;;;5.70;1.60;;;29.50;68.40;;;;;;5056338;28;20021;-68
2023/01/11 03:39:45;;;;;;;9.88;1.55;;;29.50;68.90;;;;;;5079198;28;20082;-67
2023/01/11 03:42:16;;;;;;;4.45;1.33;;;29.60;69.70;;;;;;5073514;28;20030;-68
2023/01/11 03:44:48;;;;;;;6.60;1.45;;;29.70;68.50;;;;;;5082920;28;20021;-68
2023/01/11 03:47:18;;;;;;;6.28;2.28;;;29.20;68.60;;;;;;5081126;28;20016;-68
2023/01/11 03:49:45;;;;;;;8.32;1.27;;;29.10;69.20;;;;;;5074287;28;20016;-67
2023/01/11 03:52:16;;;;;;;8.77;1.55;;;29.30;69.20;;;;;;5078079;28;20107;-68
2023/01/11 03:54:44;;;;;;;6.38;1.40;;;29.60;69.20;;;;;;5076836;28;20046;-67
2023/01/11 03:57:22;;;;;;;5.80;1.80;;;29.60;68.50;;;;;;5085155;28;20025;-69
2023/01/11 03:59:50;;;;;;;3.70;1.40;;;29.50;68.20;;;;;;5066681;28;20777;-68
2023/01/11 04:02:27;;;;;;;8.00;1.40;;;29.50;67.70;;;;;;5070122;28;20028;-68
2023/01/11 04:04:54;;;;;;;4.43;1.35;;;29.50;68.30;;;;;;5081873;28;20055;-67
2023/01/11 04:07:22;;;;;;;5.00;1.63;;;29.60;68.80;;;;;;5065873;28;20041;-67
2023/01/11 04:09:49;;;;;;;2.72;0.95;;;29.90;68.70;;;;;;5080407;28;20077;-68
2023/01/11 04:12:17;;;;;;;3.20;1.25;;;29.80;67.50;;;;;;5077226;28;20036;-69
2023/01/11 04:14:44;;;;;;;5.20;1.35;;;29.60;68.60;;;;;;5077350;28;20378;-68
2023/01/11 04:17:12;;;;;;;8.10;1.42;;;29.30;68.30;;;;;;5065378;28;20021;-70
2023/01/11 04:19:39;;;;;;;6.07;1.55;;;29.10;68.50;;;;;;5082955;28;20570;-69
2023/01/11 04:22:06;;;;;;;4.93;1.35;;;29.10;69.40;;;;;;5073154;28;20696;-68
2023/01/11 04:24:34;;;;;;;7.20;2.47;;;29.20;68.10;;;;;;5074364;28;20027;-69
2023/01/11 04:27:02;;;;;;;3.78;1.20;;;29.20;69.70;;;;;;5078785;28;20021;-70
2023/01/11 04:29:29;;;;;;;3.00;1.20;;;29.70;70.30;;;;;;5079474;28;20020;-67
2023/01/11 04:31:59;;;;;;;4.65;1.60;;;29.70;69.20;;;;;;5080856;28;20100;-68
2023/01/11 04:34:27;;;;;;;4.65;1.45;;;29.90;67.10;;;;;;5076518;28;20375;-69
2023/01/11 04:36:54;;;;;;;5.22;1.52;;;29.70;67.10;;;;;;5072620;28;20024;-69
2023/01/11 04:39:22;;;;;;;6.40;1.48;;;29.80;67.50;;;;;;5074188;28;20066;-69
2023/01/11 04:44:34;;;;;;;4.45;1.67;;;30.40;67.60;;;;;;5071318;28;20550;-68
2023/01/11 04:47:02;;;;;;;6.90;1.50;;;29.80;66.80;;;;;;5071571;28;20043;-68
2023/01/11 04:49:29;;;;;;;5.28;1.50;;;29.60;66.60;;;;;;5080756;28;20489;-68
2023/01/11 04:51:57;;;;;;;4.80;1.55;;;29.10;67.70;;;;;;5080410;28;20031;-68
2023/01/11 04:54:24;;;;;;;5.57;2.35;;;28.90;67.40;;;;;;5072685;28;20117;-69
2023/01/11 04:56:52;;;;;;;6.22;1.70;;;28.80;68.20;;;;;;5080821;28;20024;-68
2023/01/11 04:59:19;;;;;;;4.85;1.55;;;28.70;67.70;;;;;;5075090;28;20393;-69
2023/01/11 05:01:46;;;;;;;7.05;1.77;;;28.60;68.70;;;;;;5064015;28;20085;-69
2023/01/11 05:04:14;;;;;;;9.07;3.15;;;28.70;68.90;;;;;;5079775;28;20020;-68
2023/01/11 05:06:41;;;;;;;7.10;1.88;;;28.40;68.90;;;;;;5080512;28;20054;-69
2023/01/11 05:09:17;;;;;;;4.65;1.42;;;28.50;69.50;;;;;;5073186;28;20473;-68
2023/01/11 05:11:45;;;;;;;6.05;1.65;;;28.50;68.50;;;;;;5075018;28;20020;-69
2023/01/11 05:14:15;;;;;;;7.45;1.65;;;28.40;69.70;;;;;;5081906;28;20415;-70
2023/01/11 05:16:43;;;;;;;5.32;1.70;;;28.10;70.00;;;;;;5070886;28;21282;-68
2023/01/11 05:19:12;;;;;;;5.22;1.77;;;28.00;71.10;;;;;;5079279;28;20017;-68
2023/01/11 05:21:41;;;;;;;6.10;1.60;;;27.90;72.20;;;;;;5079143;28;20404;-66
2023/01/11 05:24:14;;;;;;;5.70;1.63;;;27.70;71.70;;;;;;5068581;28;20016;-69
2023/01/11 05:26:44;;;;;;;4.75;1.77;;;28.10;72.80;;;;;;5067662;28;20443;-68
2023/01/11 05:29:19;;;;;;;3.88;1.77;;;28.40;72.20;;;;;;5077009;28;20040;-68
2023/01/11 05:31:47;;;;;;;4.20;1.33;;;28.50;71.60;;;;;;5076245;28;20107;-69
2023/01/11 05:34:15;;;;;;;6.22;1.80;;;28.80;71.30;;;;;;5076242;28;20055;-68
2023/01/11 05:36:44;;;;;;;3.65;1.50;;;29.30;68.70;;;;;;5078948;28;20044;-67
2023/01/11 05:39:13;;;;;;;3.50;1.95;;;29.30;67.30;;;;;;5077319;28;20024;-67
2023/01/11 05:41:40;;;;;;;3.33;1.35;;;29.70;67.90;;;;;;5066392;28;20033;-67
2023/01/11 05:46:57;;;;;;;8.65;2.42;;;29.70;64.30;;;;;;5078825;28;20059;-68
2023/01/11 05:49:25;;;;;;;4.15;1.20;;;29.80;65.60;;;;;;5075041;28;20039;-68
2023/01/11 05:51:52;;;;;;;6.18;2.10;;;29.80;65.50;;;;;;5066092;28;20032;-68
2023/01/11 05:54:20;;;;;;;5.20;1.65;;;29.90;65.60;;;;;;5070101;28;20103;-67
2023/01/11 05:56:47;;;;;;;5.70;1.48;;;29.80;65.90;;;;;;5074060;28;20477;-66
2023/01/11 05:59:14;;;;;;;5.53;1.50;;;29.80;65.00;;;;;;5075157;28;20039;-68
2023/01/11 06:01:42;;;;;;;7.68;1.67;;;29.70;65.60;;;;;;5067987;28;20020;-68
2023/01/11 06:04:09;;;;;;;4.07;1.40;;;29.60;65.40;;;;;;5083881;28;20032;-68
2023/01/11 06:06:37;;;;;;;5.05;1.77;;;29.40;66.60;;;;;;5067278;28;20032;-68
2023/01/11 06:09:05;;;;;;;6.20;1.60;;;29.40;66.20;;;;;;5065424;28;20052;-68
2023/01/11 06:11:32;;;;;;;6.45;1.80;;;29.20;66.70;;;;;;5064025;28;20240;-68
2023/01/11 06:13:59;;;;;;;5.82;2.05;;;29.10;66.90;;;;;;5073528;28;20701;-69
2023/01/11 06:16:27;;;;;;;9.50;2.22;;;28.60;67.70;;;;;;5068555;28;20079;-68
2023/01/11 06:18:55;;;;;;;7.93;1.52;;;28.30;68.40;;;;;;5069723;28;20047;-68
2023/01/11 06:21:23;;;;;;;4.70;1.60;;;28.30;68.80;;;;;;5070571;28;20082;-68
2023/01/11 06:23:51;;;;;;;2.85;1.48;;;28.20;69.40;;;;;;5072289;28;20020;-68
2023/01/11 06:26:21;;;;;;;4.50;1.38;;;28.50;70.10;;;;;;5070222;28;20060;-68
2023/01/11 06:28:49;;;;;;;6.85;1.52;;;28.80;69.40;;;;;;5067893;28;20094;-68
2023/01/11 06:31:17;;;;;;;9.70;1.80;;;28.90;68.10;;;;;;5066408;28;20065;-68
2023/01/11 06:33:45;;;;;;;5.97;1.75;;;29.10;68.10;;;;;;5069472;28;20089;-66
2023/01/11 06:36:14;;;;;;;4.00;1.40;;;29.10;67.40;;;;;;5069990;28;20036;-67
2023/01/11 06:38:42;;;;;;;5.57;1.65;;;29.40;67.40;;;;;;5066286;28;20017;-70
2023/01/11 06:41:11;;;;;;;2.40;1.50;;;29.90;67.20;;;;;;5066207;28;20541;-68
2023/01/11 06:43:40;;;;;;;7.60;1.75;;;30.20;65.10;;;;;;5066154;28;20048;-68
2023/01/11 06:46:16;;;;;;;5.82;2.38;;;30.30;64.50;;;;;;5069433;28;20432;-69
2023/01/11 06:48:43;;;;;;;5.85;2.00;;;30.40;63.80;;;;;;5064942;28;20416;-69
2023/01/11 06:51:11;;;;;;;5.45;1.80;;;30.20;64.00;;;;;;5070158;28;20025;-69
2023/01/11 06:53:40;;;;;;;5.75;1.77;;;29.40;65.80;;;;;;5067533;28;20028;-68
2023/01/11 06:56:16;;;;;;;5.38;1.67;;;28.80;66.60;;;;;;5067053;28;20056;-66
2023/01/11 06:58:44;;;;;;;3.40;1.63;;;28.20;68.40;;;;;;5062392;28;20058;-67
2023/01/11 07:01:11;;;;;;;6.10;2.00;;;27.70;70.40;;;;;;5060601;28;20032;-67
2023/01/11 07:03:40;;;;;;;4.13;1.67;;;27.50;72.50;;;;;;5064721;28;20032;-67
2023/01/11 07:06:07;;;;;;;7.90;2.20;;;27.40;72.90;;;;;;5060428;28;20039;-67
2023/01/11 07:08:36;;;;;;;6.45;2.55;;;27.30;74.00;;;;;;5060377;28;20098;-68
2023/01/11 07:11:04;;;;;;;5.95;2.00;;;27.10;73.50;;;;;;5073365;28;20040;-68
2023/01/11 07:13:32;;;;;;;8.32;1.92;;;27.20;74.90;;;;;;5066436;28;21549;-68
2023/01/11 07:15:59;;;;;;;4.53;1.70;;;27.50;73.70;;;;;;5074825;28;20028;-68
2023/01/11 07:18:30;;;;;;;3.83;1.83;;;27.50;73.60;;;;;;5064214;28;20040;-69
2023/01/11 07:20:57;;;;;;;5.50;1.83;;;27.30;73.40;;;;;;5066832;28;20635;-67
2023/01/11 07:23:25;;;;;;;4.20;2.20;;;27.10;73.80;;;;;;5064820;28;20444;-68
2023/01/11 07:25:52;;;;;;;5.85;1.88;;;27.00;74.50;;;;;;5069162;28;20028;-67
2023/01/11 07:28:20;;;;;;;5.35;1.90;;;27.00;75.30;;;;;;5063752;28;20071;-67
2023/01/11 07:30:48;;;;;;;7.35;2.35;;;27.20;74.40;;;;;;5065336;28;20094;-67
2023/01/11 07:33:15;;;;;;;5.35;2.30;;;27.30;74.90;;;;;;5075260;28;20028;-69
2023/01/11 07:35:42;;;;;;;2.80;2.17;;;26.90;74.80;;;;;;5068570;28;20116;-67
2023/01/11 07:38:10;;;;;;;6.53;1.80;;;26.60;75.90;;;;;;5073111;28;20020;-64
2023/01/11 07:40:38;;;;;;;7.63;1.92;;;26.40;77.20;;;;;;5067099;28;20074;-67
2023/01/11 07:43:17;;;;;;;4.13;1.80;;;26.20;78.70;;;;;;5064559;28;20032;-67
2023/01/11 07:45:49;;;;;;;4.95;2.03;;;26.00;79.50;;;;;;5074195;28;20027;-67
2023/01/11 07:48:20;;;;;;;4.80;1.83;;;25.90;79.80;;;;;;5082915;28;20032;-67
2023/01/11 07:50:47;;;;;;;5.35;1.90;;;25.90;80.30;;;;;;5072608;28;20050;-66
2023/01/11 07:53:15;;;;;;;8.93;2.20;;;25.90;81.30;;;;;;5061715;28;20031;-68
2023/01/11 07:55:43;;;;;;;8.90;2.30;;;25.90;80.60;;;;;;5061467;28;20048;-68
2023/01/11 07:58:14;;;;;;;6.35;2.03;;;25.80;81.40;;;;;;5069067;28;20405;-67
2023/01/11 08:00:41;;;;;;;4.47;1.80;;;25.70;81.70;;;;;;5068309;28;20017;-68
2023/01/11 08:03:09;;;;;;;8.20;2.67;;;25.60;82.80;;;;;;5068293;28;20490;-66
2023/01/11 08:05:37;;;;;;;4.20;2.47;;;25.40;83.80;;;;;;5066138;28;20048;-69
2023/01/11 08:08:05;;;;;;;4.60;2.38;;;25.30;84.90;;;;;;5070067;28;20033;-67
2023/01/11 08:10:33;;;;;;;5.55;2.25;;;25.20;85.60;;;;;;5072928;28;20515;-67
2023/01/11 08:15:46;;;;;;;5.60;2.10;;;24.90;86.70;;;;;;5071747;28;20032;-67
2023/01/11 08:18:15;;;;;;;3.97;2.15;;;24.70;88.20;;;;;;5073798;28;21281;-67
2023/01/11 08:20:44;;;;;;;8.45;2.20;;;24.60;89.50;;;;;;5062697;28;20104;-67
2023/01/11 08:23:11;;;;;;;5.53;2.58;;;24.50;89.80;;;;;;5077726;28;20050;-68
2023/01/11 08:25:39;;;;;;;7.18;2.20;;;24.40;90.20;;;;;;5070013;28;20028;-67
2023/01/11 08:28:07;;;;;;;2.78;1.77;;;24.30;90.80;;;;;;5073683;28;20036;-67
2023/01/11 08:30:36;;;;;;;6.05;1.95;;;24.20;91.20;;;;;;5064781;28;20024;-67
2023/01/11 08:33:04;;;;;;;5.75;1.63;;;24.00;91.50;;;;;;5065961;28;20029;-68
2023/01/11 08:35:38;;;;;;;5.00;2.42;;;24.00;92.10;;;;;;5065668;28;20056;-68
2023/01/11 08:38:05;;;;;;;5.70;1.80;;;23.90;92.50;;;;;;5070970;28;20024;-67
2023/01/11 08:40:33;;;;;;;3.50;1.90;;;23.90;92.80;;;;;;5075314;28;20035;-67
2023/01/11 08:43:00;;;;;;;6.25;2.15;;;23.80;93.10;;;;;;5073197;28;20028;-67
2023/01/11 08:45:28;;;;;;;3.95;2.00;;;23.80;93.20;;;;;;5081508;28;20878;-67
2023/01/11 08:47:58;;;;;;;4.85;2.00;;;23.70;93.80;;;;;;5070448;28;20111;-68
2023/01/11 08:50:25;;;;;;;7.20;2.38;;;23.60;94.20;;;;;;5083960;28;20162;-68
2023/01/11 08:52:53;;;;;;;8.50;2.88;;;23.60;95.90;;;;;;5076960;28;20484;-68
2023/01/11 08:55:20;;;;;;;4.00;2.47;;;23.50;97.00;;;;;;5074198;28;20094;-68
2023/01/11 08:57:48;;;;;;;7.97;2.67;;;23.40;97.60;;;;;;5080525;28;20496;-68
2023/01/11 09:00:16;;;;;;;6.55;2.20;;;23.30;98.30;;;;;;5082707;28;20065;-68
2023/01/11 09:02:44;;;;;;;7.32;2.28;;;23.30;98.90;;;;;;5068444;28;20028;-68
2023/01/11 09:05:12;;;;;;;9.93;3.00;;;23.20;99.60;;;;;;5072593;28;20028;-69
2023/01/11 09:07:39;;;;;;;10.05;3.83;;;23.20;99.90;;;;;;5068245;28;20032;-67
2023/01/11 09:10:07;;;;;;;9.52;2.00;;;23.10;99.90;;;;;;5066047;28;20032;-68
2023/01/11 09:12:34;;;;;;;7.43;2.30;;;23.00;99.90;;;;;;5061463;28;20024;-68
2023/01/11 09:15:04;;;;;;;5.05;2.40;;;22.90;99.90;;;;;;5069109;28;20233;-68
2023/01/11 09:17:32;;;;;;;6.53;2.10;;;22.80;99.90;;;;;;5064616;28;20036;-67
2023/01/11 09:19:59;;;;;;;6.70;2.67;;;22.80;99.90;;;;;;5068827;28;20052;-68
2023/01/11 09:22:26;;;;;;;4.45;1.80;;;22.70;99.90;;;;;;5083865;28;20385;-68
2023/01/11 09:24:57;;;;;;;10.45;2.75;;;22.70;99.90;;;;;;5066891;28;20479;-68
2023/01/11 09:27:25;;;;;;;7.00;2.45;;;22.60;99.90;;;;;;5062513;28;20125;-67
2023/01/11 09:29:52;;;;;;;7.22;2.40;;;22.50;99.90;;;;;;5064999;28;20109;-67
2023/01/11 09:32:20;;;;;;;5.13;1.98;;;22.50;99.90;;;;;;5065999;28;20452;-68
2023/01/11 09:34:48;;;;;;;4.55;2.13;;;22.40;99.90;;;;;;5067405;28;20478;-68
2023/01/11 09:37:16;;;;;;;8.52;2.20;;;22.40;99.90;;;;;;5066100;28;20028;-68
2023/01/11 09:39:44;;;;;;;11.85;3.65;;;22.40;99.90;;;;;;5066729;28;20029;-68
2023/01/11 09:42:38;;;;;;;9.50;2.65;;;22.30;99.90;;;;;;5068093;28;20474;-68
2023/01/11 09:45:19;;;;;;;5.80;2.40;;;22.30;99.90;;;;;;5058912;28;20024;-68
2023/01/11 09:47:59;;;;;;;5.05;1.92;;;22.20;99.90;;;;;;5070337;28;20033;-68
2023/01/11 09:50:29;;;;;;;5.72;2.30;;;22.20;99.90;;;;;;5056030;28;20028;-68
2023/01/11 09:53:07;;;;;;;6.88;2.10;;;22.20;99.90;;;;;;5071887;28;20024;-68
2023/01/11 09:55:51;;;;;;;4.35;2.97;;;22.20;99.90;;;;;;5084016;28;20565;-68
2023/01/11 09:58:28;;;;;;;4.93;2.83;;;22.10;99.90;;;;;;5077803;28;20032;-68
2023/01/11 10:01:28;;;;;;;6.47;2.33;;;22.10;99.90;;;;;;5074589;28;20029;-67
2023/01/11 10:04:24;;;;;;;7.68;2.17;;;22.10;99.90;;;;;;5069700;28;20044;-68
2023/01/11 10:06:57;;;;;;;7.82;2.42;;;22.00;99.90;;;;;;5084612;28;20020;-67
2023/01/11 10:09:38;;;;;;;6.82;2.50;;;22.00;99.90;;;;;;5071446;28;20039;-68
2023/01/11 10:12:09;;;;;;;5.80;2.20;;;22.00;99.90;;;;;;5074672;28;20100;-67
2023/01/11 10:15:00;;;;;;;8.10;2.20;;;22.00;99.90;;;;;;5068802;28;20035;-68
2023/01/11 10:17:39;;;;;;;8.38;3.13;;;22.00;99.90;;;;;;5071577;28;20477;-67
2023/01/11 10:20:23;;;;;;;6.00;2.33;;;21.90;99.90;;;;;;5073116;28;20017;-68
2023/01/11 10:22:58;;;;;;;8.55;2.50;;;22.00;99.90;;;;;;5066784;28;20024;-68
2023/01/11 10:25:40;;;;;;;6.88;2.30;;;21.90;99.90;;;;;;5074661;28;20417;-68
2023/01/11 10:28:21;;;;;;;8.43;2.80;;;21.90;99.90;;;;;;5088554;28;20059;-68
2023/01/11 10:42:20;;;;;;;7.53;1.95;;;21.90;99.90;;;;;;5078017;28;20154;-67
2023/01/11 10:44:56;;;;;;;7.00;2.15;;;21.90;99.90;;;;;;5068712;28;20481;-68
2023/01/11 10:47:29;;;;;;;7.13;2.50;;;21.90;99.90;;;;;;5075440;28;20444;-68
2023/01/11 10:50:39;;;;;;;6.38;2.17;;;21.80;99.90;;;;;;5071362;28;20033;-68
2023/01/11 10:53:27;;;;;;;9.93;2.30;;;21.80;99.90;;;;;;5070929;28;20073;-68
2023/01/11 10:56:04;;;;;;;8.38;2.00;;;21.80;99.90;;;;;;5082298;28;20045;-67
2023/01/11 10:58:59;;;;;;;4.10;1.50;;;21.80;99.90;;;;;;5085570;28;20035;-68
2023/01/11 11:02:06;;;;;;;6.45;2.10;;;21.80;99.90;;;;;;5084237;28;20016;-68
2023/01/11 11:05:05;;;;;;;9.10;2.40;;;21.80;99.90;;;;;;5061356;28;20055;-69
2023/01/11 11:07:40;;;;;;;4.18;1.75;;;21.80;99.90;;;;;;5081639;28;20021;-68
2023/01/11 11:10:20;;;;;;;9.15;2.95;;;21.80;99.90;;;;;;5076960;28;20477;-68
2023/01/11 11:13:06;;;;;;;7.50;1.88;;;21.70;99.90;;;;;;5081639;28;20017;-68
2023/01/11 11:15:51;;;;;;;7.53;1.75;;;21.70;99.90;;;;;;5073191;28;20028;-69
2023/01/11 11:18:19;;;;;;;10.35;2.00;;;21.70;99.90;;;;;;5073649;28;20055;-69
2023/01/11 11:20:46;;;;;;;7.47;2.13;;;21.70;99.90;;;;;;5083560;28;20020;-68
2023/01/11 11:23:23;;;;;;;9.27;2.17;;;21.70;99.90;;;;;;5071163;28;20031;-68
2023/01/11 11:25:56;;;;;;;3.38;2.10;;;21.70;99.90;;;;;;5072285;28;20025;-68
2023/01/11 11:28:27;;;;;;;8.02;2.30;;;21.70;99.90;;;;;;5072392;28;20038;-68
2023/01/11 11:31:00;;;;;;;7.70;2.08;;;21.70;99.90;;;;;;5082545;28;20020;-68
2023/01/11 11:33:39;;;;;;;8.75;2.65;;;21.70;99.90;;;;;;5083618;28;20029;-69
2023/01/11 11:36:12;;;;;;;6.95;2.20;;;21.70;99.90;;;;;;5072120;28;20115;-68
2023/01/11 11:38:44;;;;;;;5.95;2.28;;;21.70;99.90;;;;;;5071540;28;20440;-68
2023/01/11 11:41:16;;;;;;;8.82;2.15;;;21.70;99.90;;;;;;5068514;28;20029;-68
2023/01/11 11:43:46;;;;;;;2.55;1.40;;;21.60;99.90;;;;;;5065979;28;20035;-68
2023/01/11 11:46:21;;;;;;;15.13;3.42;;;21.60;99.90;;;;;;5085475;28;20016;-68
2023/01/11 11:49:11;;;;;;;6.75;2.00;;;21.60;99.90;;;;;;5072621;28;20043;-67
2023/01/11 11:51:41;;;;;;;8.95;2.13;;;21.60;99.90;;;;;;5070461;28;20547;-68
2023/01/11 11:54:18;;;;;;;6.25;2.40;;;21.60;99.90;;;;;;5073611;28;20354;-69
2023/01/11 11:56:45;;;;;;;4.28;2.03;;;21.60;99.90;;;;;;5080417;28;20031;-69
2023/01/11 11:59:20;;;;;;;6.57;2.00;;;21.50;99.90;;;;;;5068901;28;20031;-69
2023/01/11 12:01:54;;;;;;;8.43;1.85;;;21.50;99.90;;;;;;5070661;28;20028;-69
2023/01/11 12:04:39;;;;;;;8.90;2.00;;;21.50;99.90;;;;;;5060723;28;20362;-68
2023/01/11 12:07:15;;;;;;;5.70;1.80;;;21.50;99.90;;;;;;5075320;28;20021;-69
2023/01/11 12:09:59;;;;;;;7.00;2.22;;;21.60;99.90;;;;;;5068565;28;20036;-68
2023/01/11 12:12:26;;;;;;;6.13;1.95;;;21.50;99.90;;;;;;5072404;28;20079;-68
2023/01/11 12:15:12;;;;;;;10.73;2.50;;;21.50;99.90;;;;;;5069973;28;20025;-68
2023/01/11 12:17:40;;;;;;;5.85;1.75;;;21.50;99.90;;;;;;5074784;28;20028;-69
2023/01/11 12:20:22;;;;;;;8.32;1.92;;;21.50;99.90;;;;;;5074250;28;20029;-69
2023/01/11 12:23:07;;;;;;;8.43;1.95;;;21.50;99.90;;;;;;5070909;28;20431;-69
2023/01/11 12:25:37;;;;;;;;;;;21.50;99.90;;;;;;5065267;28;20028;-69
2023/01/11 12:28:27;;;;;;;9.32;2.05;;;21.40;99.90;;;;;;5072391;28;19916;-69
2023/01/11 12:31:05;;;;;;;6.13;2.15;;;21.50;99.90;;;;;;5077726;28;20035;-69
2023/01/11 12:33:32;;;;;;;9.48;2.80;;;21.40;99.90;;;;;;5071275;28;20032;-69
2023/01/11 12:36:24;;;;;;;10.68;2.88;;;21.40;99.90;;;;;;5085222;28;20039;-69
2023/01/11 12:39:06;;;;;;;9.70;2.00;;;21.40;99.90;;;;;;5070020;28;20385;-68
2023/01/11 12:42:09;;;;;;;9.18;2.10;;;21.40;99.90;;;;;;5069984;28;20038;-69
2023/01/11 12:44:42;;;;;;;8.07;2.50;;;21.40;99.90;;;;;;5068770;28;20027;-69
2023/01/11 12:47:27;;;;;;;5.57;2.10;;;21.40;99.90;;;;;;5078971;28;20043;-69
2023/01/11 12:50:08;;;;;;;10.30;2.10;;;21.40;99.90;;;;;;5069407;28;20039;-70
2023/01/11 12:52:46;;;;;;;14.63;2.33;;;21.40;99.90;;;;;;5079506;28;20524;-69
2023/01/11 12:55:43;;;;;;;7.28;2.53;;;21.40;99.90;;;;;;5068071;28;20052;-69
2023/01/11 12:58:34;;;;;;;9.52;2.58;;;21.40;99.90;;;;;;5072789;28;20462;-68
2023/01/11 13:01:19;;;;;;;13.50;2.17;;;21.40;99.90;;;;;;5063446;28;20051;-68
2023/01/11 13:04:28;;;;;;;8.85;2.38;;;21.40;99.90;;;;;;5067888;28;21510;-69
2023/01/11 13:06:55;;;;;;;7.50;2.63;;;21.40;99.90;;;;;;5056867;28;20038;-69
2023/01/11 13:09:30;;;;;;;11.63;3.38;;;21.40;99.90;;;;;;5069209;28;20673;-70
2023/01/11 13:12:10;;;;;;;5.65;2.15;;;21.30;99.90;;;;;;5069676;28;20572;-69
2023/01/11 13:14:49;;;;;;;11.50;2.38;;;21.30;99.90;;;;;;5065401;28;20042;-69
2023/01/11 13:17:29;;;;;;;7.53;2.17;;;21.30;99.90;;;;;;5069873;28;20181;-69
2023/01/11 13:20:30;;;;;;;7.13;2.42;;;21.30;99.90;;;;;;5067963;28;20399;-69
2023/01/11 13:23:23;;;;;;;8.45;2.08;;;21.30;99.90;;;;;;5069317;28;20074;-69
2023/01/11 13:25:52;;;;;;;7.30;2.42;;;21.30;99.90;;;;;;5065328;28;20056;-68
2023/01/11 13:28:44;;;;;;;9.88;2.65;;;21.30;99.90;;;;;;5061713;28;20535;-69
2023/01/11 13:31:13;;;;;;;8.10;2.22;;;21.30;99.90;;;;;;5079184;28;20039;-69
2023/01/11 13:33:46;;;;;;;10.40;2.33;;;21.30;99.90;;;;;;5079245;28;20485;-69
2023/01/11 13:36:17;;;;;;;14.13;2.38;;;21.30;99.90;;;;;;5070102;28;20063;-69
2023/01/11 13:39:00;;;;;;;10.07;2.88;;;21.30;99.90;;;;;;5069139;28;20024;-69
2023/01/11 13:41:37;;;;;;;14.00;2.90;;;21.30;99.90;;;;;;5068175;28;20059;-69
2023/01/11 13:44:32;;;;;;;8.68;2.60;;;21.30;99.90;;;;;;5069760;28;20059;-69
2023/01/11 13:47:18;;;;;;;;;;;21.20;99.90;;;;;;5077286;28;20032;-69
2023/01/11 13:50:20;;;;;;;9.82;2.47;;;21.30;99.90;;;;;;5070579;28;19912;-69
2023/01/11 13:53:08;;;;;;;6.05;2.15;;;21.20;99.90;;;;;;5065245;28;20047;-69
2023/01/11 13:56:06;;;;;;;10.82;1.83;;;21.20;99.90;;;;;;5075320;28;20048;-68